sensor_id;sensor_type;location;lat;lon;timestamp;P1;durP1;ratioP1;P2;durP2;ratioP2
3085;SDS011;52812;48.960;9.108;2024-02-26T00:02:13;4.53;;;3.70;;
3085;SDS011;52812;48.960;9.108;2024-02-26T00:04:39;5.43;;;4.30;;
3085;SDS011;52812;48.960;9.108;2024-02-26T00:07:05;4.93;;;3.67;;
3085;SDS011;52812;48.960;9.108;2024-02-26T00:09:30;5.90;;;3.50;;
3085;SDS011;52812;48.960;9.108;2024-02-26T00:11:56;5.23;;;3.20;;
3085;SDS011;52812;48.960;9.108;2024-02-26T00:14:23;5.30;;;3.50;;
3085;SDS011;52812;48.960;9.108;2024-02-26T00:16:48;4.67;;;3.50;;
3085;SDS011;52812;48.960;9.108;2024-02-26T00:19:14;4.63;;;3.20;;
3085;SDS011;52812;48.960;9.108;2024-02-26T00:21:40;3.73;;;3.30;;
3085;SDS011;52812;48.960;9.108;2024-02-26T00:24:09;4.10;;;3.27;;
3085;SDS011;52812;48.960;9.108;2024-02-26T00:26:34;4.27;;;3.37;;
3085;SDS011;52812;48.960;9.108;2024-02-26T00:29:00;3.60;;;3.30;;
3085;SDS011;52812;48.960;9.108;2024-02-26T00:31:25;4.67;;;3.40;;
3085;SDS011;52812;48.960;9.108;2024-02-26T00:33:51;4.40;;;3.40;;
3085;SDS011;52812;48.960;9.108;2024-02-26T00:36:16;3.93;;;3.53;;
3085;SDS011;52812;48.960;9.108;2024-02-26T00:38:43;3.63;;;3.30;;
3085;SDS011;52812;48.960;9.108;2024-02-26T00:41:11;5.17;;;3.20;;
3085;SDS011;52812;48.960;9.108;2024-02-26T00:43:36;3.70;;;3.40;;
3085;SDS011;52812;48.960;9.108;2024-02-26T00:46:04;3.77;;;3.20;;
3085;SDS011;52812;48.960;9.108;2024-02-26T00:48:29;8.53;;;5.47;;
3085;SDS011;52812;48.960;9.108;2024-02-26T00:50:55;11.90;;;7.83;;
3085;SDS011;52812;48.960;9.108;2024-02-26T00:53:21;10.53;;;6.10;;
3085;SDS011;52812;48.960;9.108;2024-02-26T00:55:46;9.80;;;7.50;;
3085;SDS011;52812;48.960;9.108;2024-02-26T00:58:12;3.50;;;3.20;;
3085;SDS011;52812;48.960;9.108;2024-02-26T01:00:37;3.70;;;3.40;;
3085;SDS011;52812;48.960;9.108;2024-02-26T01:03:03;3.97;;;3.57;;
3085;SDS011;52812;48.960;9.108;2024-02-26T01:05:29;11.57;;;6.43;;
3085;SDS011;52812;48.960;9.108;2024-02-26T01:07:55;7.93;;;5.20;;
3085;SDS011;52812;48.960;9.108;2024-02-26T01:10:20;5.77;;;4.40;;
3085;SDS011;52812;48.960;9.108;2024-02-26T01:12:46;4.60;;;3.73;;
3085;SDS011;52812;48.960;9.108;2024-02-26T01:15:12;8.23;;;5.57;;
3085;SDS011;52812;48.960;9.108;2024-02-26T01:17:38;8.47;;;6.00;;
3085;SDS011;52812;48.960;9.108;2024-02-26T01:20:04;6.77;;;4.63;;
3085;SDS011;52812;48.960;9.108;2024-02-26T01:22:30;7.67;;;4.87;;
3085;SDS011;52812;48.960;9.108;2024-02-26T01:24:55;4.40;;;3.97;;
3085;SDS011;52812;48.960;9.108;2024-02-26T01:27:21;6.77;;;4.10;;
3085;SDS011;52812;48.960;9.108;2024-02-26T01:29:51;5.03;;;3.60;;
3085;SDS011;52812;48.960;9.108;2024-02-26T01:32:17;6.40;;;4.30;;
3085;SDS011;52812;48.960;9.108;2024-02-26T01:34:43;22.50;;;11.80;;
3085;SDS011;52812;48.960;9.108;2024-02-26T01:37:08;4.63;;;3.80;;
3085;SDS011;52812;48.960;9.108;2024-02-26T01:39:34;5.50;;;3.90;;
3085;SDS011;52812;48.960;9.108;2024-02-26T01:41:59;4.17;;;3.60;;
3085;SDS011;52812;48.960;9.108;2024-02-26T01:44:26;4.90;;;3.83;;
3085;SDS011;52812;48.960;9.108;2024-02-26T01:46:51;3.47;;;3.13;;
3085;SDS011;52812;48.960;9.108;2024-02-26T01:49:18;4.20;;;3.50;;
3085;SDS011;52812;48.960;9.108;2024-02-26T01:51:44;4.17;;;2.87;;
3085;SDS011;52812;48.960;9.108;2024-02-26T01:54:11;4.43;;;3.30;;
3085;SDS011;52812;48.960;9.108;2024-02-26T01:56:37;4.90;;;3.90;;
3085;SDS011;52812;48.960;9.108;2024-02-26T01:59:04;4.40;;;3.87;;
3085;SDS011;52812;48.960;9.108;2024-02-26T02:01:32;5.87;;;4.10;;
3085;SDS011;52812;48.960;9.108;2024-02-26T02:03:59;5.47;;;4.20;;
3085;SDS011;52812;48.960;9.108;2024-02-26T02:06:25;8.50;;;5.20;;
3085;SDS011;52812;48.960;9.108;2024-02-26T02:08:54;9.03;;;6.00;;
3085;SDS011;52812;48.960;9.108;2024-02-26T02:11:20;10.20;;;6.10;;
3085;SDS011;52812;48.960;9.108;2024-02-26T02:13:45;6.93;;;5.13;;
3085;SDS011;52812;48.960;9.108;2024-02-26T02:16:12;7.80;;;5.73;;
3085;SDS011;52812;48.960;9.108;2024-02-26T02:18:37;6.40;;;5.20;;
3085;SDS011;52812;48.960;9.108;2024-02-26T02:21:03;6.03;;;4.90;;
3085;SDS011;52812;48.960;9.108;2024-02-26T02:23:29;7.30;;;5.10;;
3085;SDS011;52812;48.960;9.108;2024-02-26T02:25:54;7.80;;;5.53;;
3085;SDS011;52812;48.960;9.108;2024-02-26T02:28:22;6.63;;;5.37;;
3085;SDS011;52812;48.960;9.108;2024-02-26T02:30:50;6.13;;;5.37;;
3085;SDS011;52812;48.960;9.108;2024-02-26T02:33:17;7.50;;;5.00;;
3085;SDS011;52812;48.960;9.108;2024-02-26T02:35:42;7.03;;;4.70;;
3085;SDS011;52812;48.960;9.108;2024-02-26T02:38:08;7.20;;;5.57;;
3085;SDS011;52812;48.960;9.108;2024-02-26T02:40:34;7.23;;;5.13;;
3085;SDS011;52812;48.960;9.108;2024-02-26T02:43:00;5.70;;;4.50;;
3085;SDS011;52812;48.960;9.108;2024-02-26T02:45:27;6.23;;;4.80;;
3085;SDS011;52812;48.960;9.108;2024-02-26T02:47:53;5.70;;;4.60;;
3085;SDS011;52812;48.960;9.108;2024-02-26T02:50:19;7.03;;;4.90;;
3085;SDS011;52812;48.960;9.108;2024-02-26T02:52:44;5.47;;;4.70;;
3085;SDS011;52812;48.960;9.108;2024-02-26T02:55:10;5.80;;;4.53;;
3085;SDS011;52812;48.960;9.108;2024-02-26T02:57:36;7.97;;;4.70;;
3085;SDS011;52812;48.960;9.108;2024-02-26T03:00:06;6.37;;;4.37;;
3085;SDS011;52812;48.960;9.108;2024-02-26T03:02:33;5.33;;;4.20;;
3085;SDS011;52812;48.960;9.108;2024-02-26T03:05:00;4.97;;;4.23;;
3085;SDS011;52812;48.960;9.108;2024-02-26T03:07:27;5.33;;;4.03;;
3085;SDS011;52812;48.960;9.108;2024-02-26T03:09:52;6.73;;;4.83;;
3085;SDS011;52812;48.960;9.108;2024-02-26T03:12:18;6.87;;;3.97;;
3085;SDS011;52812;48.960;9.108;2024-02-26T03:14:43;8.20;;;4.60;;
3085;SDS011;52812;48.960;9.108;2024-02-26T03:17:09;6.13;;;4.40;;
3085;SDS011;52812;48.960;9.108;2024-02-26T03:19:34;6.40;;;4.80;;
3085;SDS011;52812;48.960;9.108;2024-02-26T03:22:00;5.17;;;4.60;;
3085;SDS011;52812;48.960;9.108;2024-02-26T03:24:25;4.77;;;4.30;;
3085;SDS011;52812;48.960;9.108;2024-02-26T03:26:51;7.37;;;4.53;;
3085;SDS011;52812;48.960;9.108;2024-02-26T03:29:17;6.00;;;4.50;;
3085;SDS011;52812;48.960;9.108;2024-02-26T03:31:42;5.47;;;4.20;;
3085;SDS011;52812;48.960;9.108;2024-02-26T03:34:08;6.23;;;4.40;;
3085;SDS011;52812;48.960;9.108;2024-02-26T03:36:34;5.50;;;4.30;;
3085;SDS011;52812;48.960;9.108;2024-02-26T03:38:59;5.13;;;4.20;;
3085;SDS011;52812;48.960;9.108;2024-02-26T03:41:25;6.40;;;3.90;;
3085;SDS011;52812;48.960;9.108;2024-02-26T03:43:51;5.30;;;4.30;;
3085;SDS011;52812;48.960;9.108;2024-02-26T03:46:16;6.27;;;4.20;;
3085;SDS011;52812;48.960;9.108;2024-02-26T03:48:42;5.43;;;4.27;;
3085;SDS011;52812;48.960;9.108;2024-02-26T03:51:08;5.77;;;4.60;;
3085;SDS011;52812;48.960;9.108;2024-02-26T03:53:35;5.73;;;4.37;;
3085;SDS011;52812;48.960;9.108;2024-02-26T03:56:04;5.07;;;4.57;;
3085;SDS011;52812;48.960;9.108;2024-02-26T03:58:31;5.30;;;4.07;;
3085;SDS011;52812;48.960;9.108;2024-02-26T04:00:56;5.87;;;4.23;;
3085;SDS011;52812;48.960;9.108;2024-02-26T04:03:22;5.10;;;3.63;;
3085;SDS011;52812;48.960;9.108;2024-02-26T04:05:47;4.30;;;3.43;;
3085;SDS011;52812;48.960;9.108;2024-02-26T04:08:13;5.13;;;3.60;;
3085;SDS011;52812;48.960;9.108;2024-02-26T04:10:38;3.50;;;3.20;;
3085;SDS011;52812;48.960;9.108;2024-02-26T04:13:04;3.43;;;3.13;;
3085;SDS011;52812;48.960;9.108;2024-02-26T04:15:30;4.00;;;3.10;;
3085;SDS011;52812;48.960;9.108;2024-02-26T04:17:57;3.43;;;2.73;;
3085;SDS011;52812;48.960;9.108;2024-02-26T04:20:22;5.03;;;3.10;;
3085;SDS011;52812;48.960;9.108;2024-02-26T04:22:48;3.20;;;2.63;;
3085;SDS011;52812;48.960;9.108;2024-02-26T04:25:13;3.93;;;3.17;;
3085;SDS011;52812;48.960;9.108;2024-02-26T04:27:39;3.50;;;3.20;;
3085;SDS011;52812;48.960;9.108;2024-02-26T04:30:05;4.27;;;3.80;;
3085;SDS011;52812;48.960;9.108;2024-02-26T04:32:31;4.07;;;3.20;;
3085;SDS011;52812;48.960;9.108;2024-02-26T04:34:57;3.90;;;3.40;;
3085;SDS011;52812;48.960;9.108;2024-02-26T04:37:22;4.73;;;3.33;;
3085;SDS011;52812;48.960;9.108;2024-02-26T04:39:48;4.40;;;3.33;;
3085;SDS011;52812;48.960;9.108;2024-02-26T04:42:13;5.50;;;2.70;;
3085;SDS011;52812;48.960;9.108;2024-02-26T04:44:39;3.80;;;2.93;;
3085;SDS011;52812;48.960;9.108;2024-02-26T04:47:05;3.33;;;2.57;;
3085;SDS011;52812;48.960;9.108;2024-02-26T04:49:32;3.00;;;2.73;;
3085;SDS011;52812;48.960;9.108;2024-02-26T04:51:58;2.93;;;2.40;;
3085;SDS011;52812;48.960;9.108;2024-02-26T04:54:24;2.60;;;2.40;;
3085;SDS011;52812;48.960;9.108;2024-02-26T04:56:49;2.90;;;2.60;;
3085;SDS011;52812;48.960;9.108;2024-02-26T04:59:15;4.53;;;3.40;;
3085;SDS011;52812;48.960;9.108;2024-02-26T05:01:41;3.50;;;3.07;;
3085;SDS011;52812;48.960;9.108;2024-02-26T05:04:06;3.43;;;3.13;;
3085;SDS011;52812;48.960;9.108;2024-02-26T05:06:32;4.10;;;3.30;;
3085;SDS011;52812;48.960;9.108;2024-02-26T05:08:57;4.73;;;3.00;;
3085;SDS011;52812;48.960;9.108;2024-02-26T05:11:23;4.10;;;2.73;;
3085;SDS011;52812;48.960;9.108;2024-02-26T05:13:48;4.57;;;2.70;;
3085;SDS011;52812;48.960;9.108;2024-02-26T05:16:14;5.27;;;3.80;;
3085;SDS011;52812;48.960;9.108;2024-02-26T05:18:39;4.67;;;3.90;;
3085;SDS011;52812;48.960;9.108;2024-02-26T05:21:05;7.60;;;6.07;;
3085;SDS011;52812;48.960;9.108;2024-02-26T05:23:31;4.50;;;3.77;;
3085;SDS011;52812;48.960;9.108;2024-02-26T05:25:56;3.43;;;3.13;;
3085;SDS011;52812;48.960;9.108;2024-02-26T05:28:22;3.50;;;3.00;;
3085;SDS011;52812;48.960;9.108;2024-02-26T05:30:47;4.50;;;3.57;;
3085;SDS011;52812;48.960;9.108;2024-02-26T05:33:13;4.00;;;3.30;;
3085;SDS011;52812;48.960;9.108;2024-02-26T05:35:38;4.80;;;3.27;;
3085;SDS011;52812;48.960;9.108;2024-02-26T05:38:05;4.47;;;3.30;;
3085;SDS011;52812;48.960;9.108;2024-02-26T05:40:31;3.53;;;3.13;;
3085;SDS011;52812;48.960;9.108;2024-02-26T05:42:56;3.90;;;3.30;;
3085;SDS011;52812;48.960;9.108;2024-02-26T05:45:22;3.80;;;3.50;;
3085;SDS011;52812;48.960;9.108;2024-02-26T05:47:47;3.80;;;3.30;;
3085;SDS011;52812;48.960;9.108;2024-02-26T05:50:14;3.97;;;3.40;;
3085;SDS011;52812;48.960;9.108;2024-02-26T05:52:40;6.87;;;5.40;;
3085;SDS011;52812;48.960;9.108;2024-02-26T05:55:06;6.73;;;4.43;;
3085;SDS011;52812;48.960;9.108;2024-02-26T05:57:35;5.00;;;4.30;;
3085;SDS011;52812;48.960;9.108;2024-02-26T06:00:01;6.27;;;4.67;;
3085;SDS011;52812;48.960;9.108;2024-02-26T06:02:30;4.57;;;4.07;;
3085;SDS011;52812;48.960;9.108;2024-02-26T06:04:56;4.90;;;3.73;;
3085;SDS011;52812;48.960;9.108;2024-02-26T06:07:22;4.70;;;4.00;;
3085;SDS011;52812;48.960;9.108;2024-02-26T06:09:48;5.10;;;4.10;;
3085;SDS011;52812;48.960;9.108;2024-02-26T06:12:13;3.50;;;3.20;;
3085;SDS011;52812;48.960;9.108;2024-02-26T06:14:39;4.47;;;3.63;;
3085;SDS011;52812;48.960;9.108;2024-02-26T06:17:05;5.87;;;4.10;;
3085;SDS011;52812;48.960;9.108;2024-02-26T06:19:32;3.90;;;3.50;;
3085;SDS011;52812;48.960;9.108;2024-02-26T06:21:57;6.03;;;3.83;;
3085;SDS011;52812;48.960;9.108;2024-02-26T06:24:23;4.80;;;3.83;;
3085;SDS011;52812;48.960;9.108;2024-02-26T06:26:48;5.87;;;3.83;;
3085;SDS011;52812;48.960;9.108;2024-02-26T06:29:14;4.53;;;4.13;;
3085;SDS011;52812;48.960;9.108;2024-02-26T06:31:40;5.63;;;4.40;;
3085;SDS011;52812;48.960;9.108;2024-02-26T06:34:05;5.00;;;3.87;;
3085;SDS011;52812;48.960;9.108;2024-02-26T06:36:31;5.90;;;4.03;;
3085;SDS011;52812;48.960;9.108;2024-02-26T06:38:57;6.10;;;4.30;;
3085;SDS011;52812;48.960;9.108;2024-02-26T06:41:22;5.53;;;4.10;;
3085;SDS011;52812;48.960;9.108;2024-02-26T06:43:55;5.70;;;4.40;;
3085;SDS011;52812;48.960;9.108;2024-02-26T06:46:21;5.70;;;4.13;;
3085;SDS011;52812;48.960;9.108;2024-02-26T06:48:48;5.47;;;4.23;;
3085;SDS011;52812;48.960;9.108;2024-02-26T06:51:14;6.23;;;4.30;;
3085;SDS011;52812;48.960;9.108;2024-02-26T06:53:40;8.27;;;4.70;;
3085;SDS011;52812;48.960;9.108;2024-02-26T06:56:05;6.30;;;5.10;;
3085;SDS011;52812;48.960;9.108;2024-02-26T06:58:31;7.67;;;4.63;;
3085;SDS011;52812;48.960;9.108;2024-02-26T07:00:57;4.90;;;4.40;;
3085;SDS011;52812;48.960;9.108;2024-02-26T07:03:22;6.47;;;4.07;;
3085;SDS011;52812;48.960;9.108;2024-02-26T07:05:49;5.17;;;4.20;;
3085;SDS011;52812;48.960;9.108;2024-02-26T07:08:15;7.23;;;4.40;;
3085;SDS011;52812;48.960;9.108;2024-02-26T07:10:41;6.97;;;4.03;;
3085;SDS011;52812;48.960;9.108;2024-02-26T07:13:06;5.77;;;4.40;;
3085;SDS011;52812;48.960;9.108;2024-02-26T07:15:32;5.77;;;4.40;;
3085;SDS011;52812;48.960;9.108;2024-02-26T07:17:58;4.73;;;3.73;;
3085;SDS011;52812;48.960;9.108;2024-02-26T07:20:27;5.03;;;3.83;;
3085;SDS011;52812;48.960;9.108;2024-02-26T07:22:56;5.00;;;4.30;;
3085;SDS011;52812;48.960;9.108;2024-02-26T07:25:22;6.07;;;4.63;;
3085;SDS011;52812;48.960;9.108;2024-02-26T07:27:49;5.53;;;4.27;;
3085;SDS011;52812;48.960;9.108;2024-02-26T07:30:15;5.20;;;4.33;;
3085;SDS011;52812;48.960;9.108;2024-02-26T07:32:41;5.20;;;4.10;;
3085;SDS011;52812;48.960;9.108;2024-02-26T07:35:08;7.10;;;4.40;;
3085;SDS011;52812;48.960;9.108;2024-02-26T07:37:33;5.10;;;4.07;;
3085;SDS011;52812;48.960;9.108;2024-02-26T07:39:59;4.67;;;3.83;;
3085;SDS011;52812;48.960;9.108;2024-02-26T07:42:25;5.57;;;4.60;;
3085;SDS011;52812;48.960;9.108;2024-02-26T07:44:51;6.27;;;4.70;;
3085;SDS011;52812;48.960;9.108;2024-02-26T07:47:17;6.40;;;4.70;;
3085;SDS011;52812;48.960;9.108;2024-02-26T07:49:43;8.70;;;4.90;;
3085;SDS011;52812;48.960;9.108;2024-02-26T07:52:09;6.43;;;4.77;;
3085;SDS011;52812;48.960;9.108;2024-02-26T07:54:34;10.20;;;5.20;;
3085;SDS011;52812;48.960;9.108;2024-02-26T07:57:00;6.10;;;4.87;;
3085;SDS011;52812;48.960;9.108;2024-02-26T07:59:26;5.43;;;4.23;;
3085;SDS011;52812;48.960;9.108;2024-02-26T08:01:51;5.67;;;4.07;;
3085;SDS011;52812;48.960;9.108;2024-02-26T08:04:17;5.17;;;4.17;;
3085;SDS011;52812;48.960;9.108;2024-02-26T08:06:43;5.57;;;4.13;;
3085;SDS011;52812;48.960;9.108;2024-02-26T08:09:08;6.20;;;4.00;;
3085;SDS011;52812;48.960;9.108;2024-02-26T08:11:34;4.43;;;4.03;;
3085;SDS011;52812;48.960;9.108;2024-02-26T08:14:00;5.30;;;3.90;;
3085;SDS011;52812;48.960;9.108;2024-02-26T08:16:25;5.97;;;4.57;;
3085;SDS011;52812;48.960;9.108;2024-02-26T08:18:51;4.83;;;4.30;;
3085;SDS011;52812;48.960;9.108;2024-02-26T08:21:17;8.10;;;4.40;;
3085;SDS011;52812;48.960;9.108;2024-02-26T08:23:43;8.40;;;4.87;;
3085;SDS011;52812;48.960;9.108;2024-02-26T08:26:09;6.00;;;4.47;;
3085;SDS011;52812;48.960;9.108;2024-02-26T08:28:36;7.13;;;4.47;;
3085;SDS011;52812;48.960;9.108;2024-02-26T08:31:02;5.90;;;4.23;;
3085;SDS011;52812;48.960;9.108;2024-02-26T08:33:28;4.87;;;4.00;;
3085;SDS011;52812;48.960;9.108;2024-02-26T08:35:53;5.07;;;4.00;;
3085;SDS011;52812;48.960;9.108;2024-02-26T08:38:19;7.00;;;4.13;;
3085;SDS011;52812;48.960;9.108;2024-02-26T08:40:45;5.57;;;4.50;;
3085;SDS011;52812;48.960;9.108;2024-02-26T08:43:10;5.33;;;4.27;;
3085;SDS011;52812;48.960;9.108;2024-02-26T08:45:36;6.40;;;4.20;;
3085;SDS011;52812;48.960;9.108;2024-02-26T08:48:02;5.10;;;4.07;;
3085;SDS011;52812;48.960;9.108;2024-02-26T08:50:28;4.60;;;4.10;;
3085;SDS011;52812;48.960;9.108;2024-02-26T08:52:53;6.03;;;4.30;;
3085;SDS011;52812;48.960;9.108;2024-02-26T08:55:19;6.90;;;4.07;;
3085;SDS011;52812;48.960;9.108;2024-02-26T08:57:44;5.90;;;3.70;;
3085;SDS011;52812;48.960;9.108;2024-02-26T09:00:10;5.53;;;3.80;;
3085;SDS011;52812;48.960;9.108;2024-02-26T09:02:36;4.10;;;3.50;;
3085;SDS011;52812;48.960;9.108;2024-02-26T09:05:04;7.27;;;5.13;;
3085;SDS011;52812;48.960;9.108;2024-02-26T09:07:30;8.20;;;6.60;;
3085;SDS011;52812;48.960;9.108;2024-02-26T09:09:56;7.27;;;4.97;;
3085;SDS011;52812;48.960;9.108;2024-02-26T09:12:21;5.47;;;4.73;;
3085;SDS011;52812;48.960;9.108;2024-02-26T09:14:47;6.70;;;4.40;;
3085;SDS011;52812;48.960;9.108;2024-02-26T09:17:13;5.77;;;4.30;;
3085;SDS011;52812;48.960;9.108;2024-02-26T09:19:38;5.93;;;4.20;;
3085;SDS011;52812;48.960;9.108;2024-02-26T09:22:04;4.50;;;4.07;;
3085;SDS011;52812;48.960;9.108;2024-02-26T09:24:29;6.17;;;4.60;;
3085;SDS011;52812;48.960;9.108;2024-02-26T09:26:55;5.10;;;3.80;;
3085;SDS011;52812;48.960;9.108;2024-02-26T09:29:21;5.23;;;4.20;;
3085;SDS011;52812;48.960;9.108;2024-02-26T09:31:46;4.50;;;3.90;;
3085;SDS011;52812;48.960;9.108;2024-02-26T09:34:12;6.53;;;4.10;;
3085;SDS011;52812;48.960;9.108;2024-02-26T09:36:38;10.27;;;5.47;;
3085;SDS011;52812;48.960;9.108;2024-02-26T09:39:04;8.23;;;4.00;;
3085;SDS011;52812;48.960;9.108;2024-02-26T09:41:30;5.40;;;3.90;;
3085;SDS011;52812;48.960;9.108;2024-02-26T09:43:56;5.77;;;3.57;;
3085;SDS011;52812;48.960;9.108;2024-02-26T09:46:25;5.33;;;3.90;;
3085;SDS011;52812;48.960;9.108;2024-02-26T09:48:51;5.73;;;4.23;;
3085;SDS011;52812;48.960;9.108;2024-02-26T09:51:18;4.50;;;4.00;;
3085;SDS011;52812;48.960;9.108;2024-02-26T09:53:44;7.23;;;4.27;;
3085;SDS011;52812;48.960;9.108;2024-02-26T09:56:12;6.63;;;3.97;;
3085;SDS011;52812;48.960;9.108;2024-02-26T09:58:39;4.90;;;4.20;;
3085;SDS011;52812;48.960;9.108;2024-02-26T10:01:08;6.10;;;3.90;;
3085;SDS011;52812;48.960;9.108;2024-02-26T10:03:39;3.40;;;3.10;;
3085;SDS011;52812;48.960;9.108;2024-02-26T10:06:07;6.43;;;3.90;;
3085;SDS011;52812;48.960;9.108;2024-02-26T10:08:36;5.80;;;3.77;;
3085;SDS011;52812;48.960;9.108;2024-02-26T10:11:04;6.57;;;4.03;;
3085;SDS011;52812;48.960;9.108;2024-02-26T10:13:31;4.80;;;4.00;;
3085;SDS011;52812;48.960;9.108;2024-02-26T10:15:57;5.70;;;3.77;;
3085;SDS011;52812;48.960;9.108;2024-02-26T10:18:23;5.23;;;3.70;;
3085;SDS011;52812;48.960;9.108;2024-02-26T10:21:01;5.57;;;3.80;;
3085;SDS011;52812;48.960;9.108;2024-02-26T10:23:27;5.67;;;3.80;;
3085;SDS011;52812;48.960;9.108;2024-02-26T10:25:56;5.27;;;3.50;;
3085;SDS011;52812;48.960;9.108;2024-02-26T10:28:22;3.83;;;3.20;;
3085;SDS011;52812;48.960;9.108;2024-02-26T10:30:48;7.00;;;3.00;;
3085;SDS011;52812;48.960;9.108;2024-02-26T10:33:13;4.60;;;3.20;;
3085;SDS011;52812;48.960;9.108;2024-02-26T10:35:39;6.50;;;3.67;;
3085;SDS011;52812;48.960;9.108;2024-02-26T10:38:10;4.60;;;3.30;;
3085;SDS011;52812;48.960;9.108;2024-02-26T10:40:36;4.53;;;2.90;;
3085;SDS011;52812;48.960;9.108;2024-02-26T10:43:02;5.97;;;3.53;;
3085;SDS011;52812;48.960;9.108;2024-02-26T10:45:28;4.90;;;3.20;;
3085;SDS011;52812;48.960;9.108;2024-02-26T10:47:53;4.80;;;3.33;;
3085;SDS011;52812;48.960;9.108;2024-02-26T10:50:19;4.27;;;3.00;;
3085;SDS011;52812;48.960;9.108;2024-02-26T10:52:45;3.80;;;3.23;;
3085;SDS011;52812;48.960;9.108;2024-02-26T10:55:13;3.40;;;3.07;;
3085;SDS011;52812;48.960;9.108;2024-02-26T10:57:43;3.53;;;3.23;;
3085;SDS011;52812;48.960;9.108;2024-02-26T11:00:10;3.40;;;2.90;;
3085;SDS011;52812;48.960;9.108;2024-02-26T11:02:40;5.90;;;2.90;;
3085;SDS011;52812;48.960;9.108;2024-02-26T11:05:06;4.40;;;3.10;;
3085;SDS011;52812;48.960;9.108;2024-02-26T11:07:35;4.97;;;2.60;;
3085;SDS011;52812;48.960;9.108;2024-02-26T11:10:02;3.23;;;2.87;;
3085;SDS011;52812;48.960;9.108;2024-02-26T11:12:29;3.20;;;2.50;;
3085;SDS011;52812;48.960;9.108;2024-02-26T11:14:56;3.00;;;2.70;;
3085;SDS011;52812;48.960;9.108;2024-02-26T11:17:25;4.13;;;3.03;;
3085;SDS011;52812;48.960;9.108;2024-02-26T11:19:55;3.20;;;2.60;;
3085;SDS011;52812;48.960;9.108;2024-02-26T11:22:22;3.30;;;2.50;;
3085;SDS011;52812;48.960;9.108;2024-02-26T11:24:51;6.30;;;3.00;;
3085;SDS011;52812;48.960;9.108;2024-02-26T11:27:17;2.80;;;2.47;;
3085;SDS011;52812;48.960;9.108;2024-02-26T11:29:50;2.90;;;2.60;;
3085;SDS011;52812;48.960;9.108;2024-02-26T11:32:19;4.07;;;2.70;;
3085;SDS011;52812;48.960;9.108;2024-02-26T11:34:45;2.50;;;2.30;;
3085;SDS011;52812;48.960;9.108;2024-02-26T11:37:14;2.67;;;2.47;;
3085;SDS011;52812;48.960;9.108;2024-02-26T11:39:41;2.43;;;2.20;;
3085;SDS011;52812;48.960;9.108;2024-02-26T11:42:07;3.10;;;2.50;;
3085;SDS011;52812;48.960;9.108;2024-02-26T11:44:34;2.90;;;2.60;;
3085;SDS011;52812;48.960;9.108;2024-02-26T11:47:19;3.37;;;2.47;;
3085;SDS011;52812;48.960;9.108;2024-02-26T11:49:48;3.53;;;2.30;;
3085;SDS011;52812;48.960;9.108;2024-02-26T11:52:14;4.73;;;2.70;;
3085;SDS011;52812;48.960;9.108;2024-02-26T11:57:28;2.33;;;2.13;;
3085;SDS011;52812;48.960;9.108;2024-02-26T12:05:16;3.13;;;2.20;;
3085;SDS011;52812;48.960;9.108;2024-02-26T12:07:47;3.83;;;2.47;;
3085;SDS011;52812;48.960;9.108;2024-02-26T12:13:00;2.90;;;2.43;;
3085;SDS011;52812;48.960;9.108;2024-02-26T12:15:38;5.20;;;2.60;;
3085;SDS011;52812;48.960;9.108;2024-02-26T12:18:09;2.73;;;2.43;;
3085;SDS011;52812;48.960;9.108;2024-02-26T12:20:35;2.50;;;2.30;;
3085;SDS011;52812;48.960;9.108;2024-02-26T12:23:04;3.30;;;2.13;;
3085;SDS011;52812;48.960;9.108;2024-02-26T12:25:30;2.80;;;2.60;;
3085;SDS011;52812;48.960;9.108;2024-02-26T12:27:57;3.10;;;2.23;;
3085;SDS011;52812;48.960;9.108;2024-02-26T12:30:24;2.50;;;2.10;;
3085;SDS011;52812;48.960;9.108;2024-02-26T12:32:51;3.40;;;2.27;;
3085;SDS011;52812;48.960;9.108;2024-02-26T12:35:21;4.00;;;2.47;;
3085;SDS011;52812;48.960;9.108;2024-02-26T12:37:48;2.23;;;2.00;;
3085;SDS011;52812;48.960;9.108;2024-02-26T12:40:14;2.73;;;2.10;;
3085;SDS011;52812;48.960;9.108;2024-02-26T12:42:39;2.70;;;2.20;;
3085;SDS011;52812;48.960;9.108;2024-02-26T12:45:09;2.10;;;1.90;;
3085;SDS011;52812;48.960;9.108;2024-02-26T12:47:40;2.10;;;1.90;;
3085;SDS011;52812;48.960;9.108;2024-02-26T12:50:06;2.37;;;1.90;;
3085;SDS011;52812;48.960;9.108;2024-02-26T12:52:33;2.10;;;1.90;;
3085;SDS011;52812;48.960;9.108;2024-02-26T12:55:02;3.00;;;2.23;;
3085;SDS011;52812;48.960;9.108;2024-02-26T12:57:30;2.00;;;1.73;;
3085;SDS011;52812;48.960;9.108;2024-02-26T12:59:57;2.47;;;2.13;;
3085;SDS011;52812;48.960;9.108;2024-02-26T13:02:24;3.80;;;2.27;;
3085;SDS011;52812;48.960;9.108;2024-02-26T13:04:50;3.57;;;1.83;;
3085;SDS011;52812;48.960;9.108;2024-02-26T13:07:15;2.07;;;1.63;;
3085;SDS011;52812;48.960;9.108;2024-02-26T13:09:41;2.80;;;2.10;;
3085;SDS011;52812;48.960;9.108;2024-02-26T13:12:07;1.93;;;1.63;;
3085;SDS011;52812;48.960;9.108;2024-02-26T13:14:33;2.00;;;1.67;;
3085;SDS011;52812;48.960;9.108;2024-02-26T13:16:59;1.50;;;1.40;;
3085;SDS011;52812;48.960;9.108;2024-02-26T13:19:26;2.60;;;1.73;;
3085;SDS011;52812;48.960;9.108;2024-02-26T13:21:52;2.33;;;1.87;;
3085;SDS011;52812;48.960;9.108;2024-02-26T13:24:21;2.40;;;1.70;;
3085;SDS011;52812;48.960;9.108;2024-02-26T13:26:53;2.10;;;1.60;;
3085;SDS011;52812;48.960;9.108;2024-02-26T13:29:20;2.43;;;1.70;;
3085;SDS011;52812;48.960;9.108;2024-02-26T13:31:46;1.43;;;1.30;;
3085;SDS011;52812;48.960;9.108;2024-02-26T13:34:24;1.80;;;1.50;;
3085;SDS011;52812;48.960;9.108;2024-02-26T13:36:54;1.60;;;1.40;;
3085;SDS011;52812;48.960;9.108;2024-02-26T13:39:26;1.93;;;1.73;;
3085;SDS011;52812;48.960;9.108;2024-02-26T13:41:52;1.97;;;1.60;;
3085;SDS011;52812;48.960;9.108;2024-02-26T13:44:19;1.60;;;1.40;;
3085;SDS011;52812;48.960;9.108;2024-02-26T13:46:46;1.83;;;1.40;;
3085;SDS011;52812;48.960;9.108;2024-02-26T13:49:12;1.47;;;1.37;;
3085;SDS011;52812;48.960;9.108;2024-02-26T13:51:38;3.90;;;1.30;;
3085;SDS011;52812;48.960;9.108;2024-02-26T13:54:04;1.80;;;1.37;;
3085;SDS011;52812;48.960;9.108;2024-02-26T13:56:30;1.50;;;1.40;;
3085;SDS011;52812;48.960;9.108;2024-02-26T13:58:56;1.37;;;1.20;;
3085;SDS011;52812;48.960;9.108;2024-02-26T14:01:22;1.20;;;1.10;;
3085;SDS011;52812;48.960;9.108;2024-02-26T14:03:47;2.40;;;1.00;;
3085;SDS011;52812;48.960;9.108;2024-02-26T14:06:13;1.13;;;1.00;;
3085;SDS011;52812;48.960;9.108;2024-02-26T14:08:39;1.07;;;0.97;;
3085;SDS011;52812;48.960;9.108;2024-02-26T14:11:04;1.70;;;1.00;;
3085;SDS011;52812;48.960;9.108;2024-02-26T14:13:30;2.47;;;1.30;;
3085;SDS011;52812;48.960;9.108;2024-02-26T14:15:55;1.03;;;0.93;;
3085;SDS011;52812;48.960;9.108;2024-02-26T14:18:21;1.03;;;0.93;;
3085;SDS011;52812;48.960;9.108;2024-02-26T14:20:46;1.60;;;1.10;;
3085;SDS011;52812;48.960;9.108;2024-02-26T14:23:12;1.73;;;1.10;;
3085;SDS011;52812;48.960;9.108;2024-02-26T14:25:38;1.00;;;0.90;;
3085;SDS011;52812;48.960;9.108;2024-02-26T14:28:03;0.90;;;0.80;;
3085;SDS011;52812;48.960;9.108;2024-02-26T14:30:29;1.50;;;1.40;;
3085;SDS011;52812;48.960;9.108;2024-02-26T14:32:54;1.30;;;1.10;;
3085;SDS011;52812;48.960;9.108;2024-02-26T14:35:20;0.80;;;0.73;;
3085;SDS011;52812;48.960;9.108;2024-02-26T14:37:46;1.00;;;0.90;;
3085;SDS011;52812;48.960;9.108;2024-02-26T14:40:12;1.67;;;0.80;;
3085;SDS011;52812;48.960;9.108;2024-02-26T14:42:39;1.97;;;0.93;;
3085;SDS011;52812;48.960;9.108;2024-02-26T14:45:05;1.00;;;0.90;;
3085;SDS011;52812;48.960;9.108;2024-02-26T14:47:33;1.37;;;0.80;;
3085;SDS011;52812;48.960;9.108;2024-02-26T14:49:59;0.80;;;0.80;;
3085;SDS011;52812;48.960;9.108;2024-02-26T14:52:25;0.90;;;0.70;;
3085;SDS011;52812;48.960;9.108;2024-02-26T14:54:50;0.90;;;0.73;;
3085;SDS011;52812;48.960;9.108;2024-02-26T14:57:16;0.77;;;0.70;;
3085;SDS011;52812;48.960;9.108;2024-02-26T14:59:42;0.80;;;0.80;;
3085;SDS011;52812;48.960;9.108;2024-02-26T15:02:08;1.10;;;0.73;;
3085;SDS011;52812;48.960;9.108;2024-02-26T15:04:35;1.00;;;0.80;;
3085;SDS011;52812;48.960;9.108;2024-02-26T15:07:01;0.80;;;0.80;;